Addison, IL

12:54 PM CDT on July 29, 2015 (GMT -0500)
KC9MDO | | Change Station
CLOSE
Current Station
Personal Weather Station
Location: Addison, IL
Elevation: 696 ft
Nearby Weather Stations

Elev 696 ft 41.92 °N, 87.99 °W | Updated 12 minutes ago

Partly Cloudy
Partly Cloudy
91.6 °F
Feels Like 92 °F
N
2.7
Wind Variable Wind from NNE

Today
High -- | Low -- °F
--% Chance of Precip.
Yesterday
High -- | Low -- °F
Precip. -- in
5:42 AM 8:13 PM
Waxing Gibbous, 96% visible
Pressure 29.97 in
Visibility 10.0 miles
Clouds Few 4500 ft
Scattered Clouds 15000 ft
Mostly Cloudy 25000 ft
Heat Index 92 °F
Dew Point 62 °F
Humidity 38%
Rainfall 0.00 in
Snow Depth Not available.
UV 6 out of 12
Pollen .70 out of 12
Air Quality Not available.
Flu Activity Not available.
METAR KORD 291751Z 32014G21KT 10SM FEW045 SCT150 BKN250 29/14 A2999 RMK AO2 SLP148 T02940144 10300 20244 53003

More Conditions Fewer Conditions

Pressure 29.97 in
Visibility 10.0 miles
Clouds Few 4500 ft
Scattered Clouds 15000 ft
Mostly Cloudy 25000 ft
Heat Index 92 °F
Dew Point 62 °F
Humidity 38%
Rainfall 0.00 in
Snow Depth Not available.
UV 6 out of 12
Pollen .70 out of 12
Air Quality Not available.
Flu Activity Not available.
METAR KORD 291751Z 32014G21KT 10SM FEW045 SCT150 BKN250 29/14 A2999 RMK AO2 SLP148 T02940144 10300 20244 53003

More Conditions Fewer Conditions

10-Day Weather Forecast

×

Almanac

Astronomy

Jul. 29, 2015 Rise Set
Actual Time
Civil Twilight
Nautical Twilight
Astronomical Twilight
Moon
Length of Visible Light
Length of Day
Tomorrow will be .
, % of the Moon is Illuminated

Today's Extremes

State Highs State Lows

Community

WunderPhotos

Upload Photos

1,842,135 photos uploaded!

WunderBlogs® & News

Nearby

Air Quality

  Air Quality AQ Index Pollutant
Not available.

Snow Depth

Station Depth Elevation

Earthquake Activity

City Distance Mag. Time & Date
Minimum magnitude displayed is 2.5.

Coastal Water Temperatures

Place Temperature

Stations

Nearby Weather Stations

Station Location Temp. Windchill Dew Point Humidity Wind Precip. Elev Updated Type